createdAt,value
2023-05-16T00:01:03.885Z,18.07
2023-05-16T00:03:52.434Z,18.77
2023-05-16T00:06:42.480Z,18.33
2023-05-16T00:09:30.966Z,17.50
2023-05-16T00:12:19.760Z,18.53
2023-05-16T00:15:12.583Z,16.00
2023-05-16T00:18:01.292Z,17.03
2023-05-16T00:20:49.895Z,16.97
2023-05-16T00:23:39.768Z,17.70
2023-05-16T00:26:28.290Z,18.90
2023-05-16T00:29:16.817Z,16.60
2023-05-16T00:32:08.570Z,17.70
2023-05-16T00:34:57.276Z,18.33
2023-05-16T00:37:45.864Z,18.27
2023-05-16T00:40:35.693Z,18.23
2023-05-16T00:43:24.214Z,18.43
2023-05-16T00:46:12.752Z,18.50
2023-05-16T00:49:01.366Z,17.60
2023-05-16T00:51:49.929Z,20.07
2023-05-16T00:54:38.483Z,19.63
2023-05-16T00:57:28.454Z,16.40
2023-05-16T01:00:17.429Z,16.10
2023-05-16T01:03:06.535Z,18.47
2023-05-16T01:05:55.189Z,17.50
2023-05-16T01:08:43.738Z,20.17
2023-05-16T01:11:37.517Z,19.17
2023-05-16T01:14:32.906Z,19.27
2023-05-16T01:17:26.794Z,19.57
2023-05-16T01:20:23.448Z,21.57
2023-05-16T01:23:23.944Z,24.53
2023-05-16T01:26:19.327Z,21.73
2023-05-16T01:29:08.468Z,24.23
2023-05-16T01:31:58.382Z,23.57
2023-05-16T01:34:46.975Z,24.40
2023-05-16T01:37:38.133Z,26.93
2023-05-16T01:40:33.396Z,33.93
2023-05-16T01:43:30.490Z,33.43
2023-05-16T01:46:24.417Z,34.40
2023-05-16T01:49:17.819Z,30.50
2023-05-16T01:52:10.277Z,32.50
2023-05-16T01:55:00.378Z,34.20
2023-05-16T01:57:50.108Z,30.90
2023-05-16T02:00:41.138Z,40.60
2023-05-16T02:03:29.692Z,36.73
2023-05-16T02:06:18.312Z,39.00
2023-05-16T02:09:06.806Z,38.23
2023-05-16T02:11:55.338Z,42.40
2023-05-16T02:14:43.804Z,37.97
2023-05-16T02:17:33.760Z,36.23
2023-05-16T02:20:22.285Z,37.87
2023-05-16T02:23:10.777Z,35.80
2023-05-16T02:25:59.284Z,38.87
2023-05-16T02:28:49.479Z,36.67
2023-05-16T02:31:38.047Z,41.53
2023-05-16T02:34:28.451Z,44.77
2023-05-16T02:37:17.160Z,40.40
2023-05-16T02:40:07.431Z,42.90
2023-05-16T02:42:55.953Z,40.80
2023-05-16T02:45:47.556Z,45.13
2023-05-16T02:48:36.061Z,37.40
2023-05-16T02:51:27.341Z,42.83
2023-05-16T02:54:15.820Z,45.67
2023-05-16T02:57:04.448Z,43.60
2023-05-16T02:59:52.921Z,44.53
2023-05-16T03:02:41.804Z,41.27
2023-05-16T03:05:30.629Z,41.30
2023-05-16T03:08:20.636Z,46.17
2023-05-16T03:11:09.152Z,43.33
2023-05-16T03:14:01.575Z,39.20
2023-05-16T03:16:50.843Z,44.60
2023-05-16T03:19:39.552Z,41.00
2023-05-16T03:22:28.059Z,39.67
2023-05-16T03:25:17.967Z,38.43
2023-05-16T03:28:06.973Z,37.50
2023-05-16T03:30:55.429Z,39.90
2023-05-16T03:33:44.022Z,37.23
2023-05-16T03:36:32.459Z,39.87
2023-05-16T03:39:20.953Z,34.23
2023-05-16T03:42:11.027Z,40.50
2023-05-16T03:44:59.521Z,40.23
2023-05-16T03:47:49.903Z,32.73
2023-05-16T03:50:40.774Z,37.70
2023-05-16T03:53:29.579Z,40.00
2023-05-16T03:56:18.359Z,39.23
2023-05-16T03:59:08.319Z,35.93
2023-05-16T04:01:56.870Z,37.73
2023-05-16T04:04:45.879Z,34.30
2023-05-16T04:07:34.662Z,40.60
2023-05-16T04:10:23.286Z,35.50
2023-05-16T04:13:11.795Z,29.93
2023-05-16T04:16:01.760Z,32.07
2023-05-16T04:18:50.222Z,33.63
2023-05-16T04:21:38.651Z,34.57
2023-05-16T04:24:29.937Z,28.30
2023-05-16T04:27:18.559Z,33.70
2023-05-16T04:30:08.361Z,30.00
2023-05-16T04:32:59.391Z,32.57
2023-05-16T04:35:48.561Z,33.10
2023-05-16T04:38:37.712Z,32.53
2023-05-16T04:41:26.289Z,33.03
2023-05-16T04:44:14.810Z,31.20
2023-05-16T04:47:03.519Z,35.20
2023-05-16T04:49:53.398Z,33.30
2023-05-16T04:52:41.849Z,32.73
2023-05-16T04:55:30.696Z,31.73
2023-05-16T04:58:19.605Z,31.47
2023-05-16T05:01:08.082Z,29.70
2023-05-16T05:03:56.585Z,31.80
2023-05-16T05:06:46.462Z,32.87
2023-05-16T05:09:34.934Z,31.53
2023-05-16T05:12:23.670Z,29.60
2023-05-16T05:15:13.244Z,29.10
2023-05-16T05:18:01.986Z,26.20
2023-05-16T05:20:52.693Z,25.37
2023-05-16T05:23:42.589Z,32.90
2023-05-16T05:26:31.308Z,27.33
2023-05-16T05:29:20.234Z,30.07
2023-05-16T05:32:09.394Z,27.90
2023-05-16T05:34:58.010Z,25.40
2023-05-16T05:37:46.506Z,26.13
2023-05-16T05:40:36.400Z,24.70
2023-05-16T05:43:24.869Z,25.03
2023-05-16T05:46:13.430Z,24.33
2023-05-16T05:49:02.179Z,29.17
2023-05-16T05:51:52.154Z,28.33
2023-05-16T05:54:40.941Z,28.10
2023-05-16T05:57:30.766Z,27.50
2023-05-16T06:00:19.600Z,22.60
2023-05-16T06:03:08.131Z,25.30
2023-05-16T06:05:56.753Z,26.20
2023-05-16T06:08:45.381Z,26.20
2023-05-16T06:11:33.858Z,22.63
2023-05-16T06:14:23.712Z,22.80
2023-05-16T06:17:12.333Z,27.73
2023-05-16T06:20:00.927Z,22.53
2023-05-16T06:22:49.467Z,18.53
2023-05-16T06:25:38.009Z,19.63
2023-05-16T06:28:26.585Z,17.07
2023-05-16T06:31:16.464Z,15.43
2023-05-16T06:34:05.054Z,12.90
2023-05-16T06:36:53.504Z,17.70
2023-05-16T06:39:42.269Z,15.23
2023-05-16T06:42:30.787Z,15.60
2023-05-16T06:45:19.343Z,14.30
2023-05-16T06:48:09.472Z,14.27
2023-05-16T06:50:58.390Z,13.77
2023-05-16T06:53:46.893Z,13.10
2023-05-16T06:56:35.894Z,12.83
2023-05-16T06:59:25.203Z,11.13
2023-05-16T07:02:15.453Z,11.40
2023-05-16T07:05:06.012Z,9.83
2023-05-16T07:07:54.974Z,9.50
2023-05-16T07:10:43.608Z,10.77
2023-05-16T07:13:33.704Z,11.30
2023-05-16T07:16:24.259Z,8.13
2023-05-16T07:19:12.834Z,7.73
2023-05-16T07:22:02.847Z,9.43
2023-05-16T07:24:53.274Z,7.97
2023-05-16T07:27:44.635Z,6.33
2023-05-16T07:30:33.422Z,9.90
2023-05-16T07:33:21.985Z,5.23
2023-05-16T07:36:17.026Z,5.90
2023-05-16T07:39:07.295Z,6.47
2023-05-16T07:41:55.951Z,4.60
2023-05-16T07:44:45.259Z,3.37
2023-05-16T07:47:33.858Z,4.37
2023-05-16T07:50:22.501Z,3.17
2023-05-16T07:53:11.301Z,3.50
2023-05-16T07:56:01.202Z,2.77
2023-05-16T07:58:50.421Z,2.80
2023-05-16T08:01:38.928Z,2.60
2023-05-16T08:04:27.504Z,2.97
2023-05-16T08:07:16.079Z,4.03
2023-05-16T08:10:05.090Z,3.90
2023-05-16T08:12:55.020Z,2.57
2023-05-16T08:15:43.627Z,2.67
2023-05-16T08:18:32.235Z,2.57
2023-05-16T08:21:20.790Z,2.73
2023-05-16T08:24:11.197Z,2.80
2023-05-16T08:26:59.789Z,2.90
2023-05-16T08:29:49.599Z,3.00
2023-05-16T08:32:38.271Z,2.70
2023-05-16T08:35:27.017Z,3.17
2023-05-16T08:38:15.692Z,3.00
2023-05-16T08:41:04.527Z,4.53
2023-05-16T08:43:53.507Z,3.33
2023-05-16T08:46:44.288Z,2.50
2023-05-16T08:49:33.591Z,2.80
2023-05-16T08:52:22.867Z,2.77
2023-05-16T08:55:12.638Z,2.30
2023-05-16T08:58:01.804Z,3.00
2023-05-16T09:00:50.573Z,2.67
2023-05-16T09:03:40.988Z,5.53
2023-05-16T09:06:29.808Z,3.67
2023-05-16T09:09:18.313Z,3.20
2023-05-16T09:12:07.379Z,2.90
2023-05-16T09:14:55.975Z,3.20
2023-05-16T09:17:46.672Z,5.50
2023-05-16T09:20:40.345Z,2.37
2023-05-16T09:23:28.932Z,3.40
2023-05-16T09:26:17.645Z,12.83
2023-05-16T09:29:12.097Z,4.20
2023-05-16T09:32:06.590Z,1.83
2023-05-16T09:34:58.540Z,2.40
2023-05-16T09:37:48.472Z,1.90
2023-05-16T09:40:41.776Z,2.07
2023-05-16T09:43:30.385Z,2.60
2023-05-16T09:46:19.841Z,2.13
2023-05-16T09:49:08.699Z,1.70
2023-05-16T09:51:57.320Z,2.33
2023-05-16T09:54:48.919Z,2.23
2023-05-16T09:57:39.519Z,2.03
2023-05-16T10:00:31.178Z,2.00
2023-05-16T10:03:20.041Z,2.87
2023-05-16T10:06:09.254Z,1.90
2023-05-16T10:08:57.878Z,4.40
2023-05-16T10:11:48.107Z,2.00
2023-05-16T10:14:37.895Z,1.97
2023-05-16T10:17:27.395Z,1.87
2023-05-16T10:20:16.698Z,2.33
2023-05-16T10:23:05.680Z,3.53
2023-05-16T10:25:55.163Z,2.13
2023-05-16T10:28:45.311Z,2.33
2023-05-16T10:31:34.138Z,2.20
2023-05-16T10:34:23.355Z,2.17
2023-05-16T10:37:11.842Z,2.67
2023-05-16T10:40:01.217Z,5.13
2023-05-16T10:42:56.939Z,1.80
2023-05-16T10:45:55.679Z,1.80
2023-05-16T10:48:44.225Z,1.97
2023-05-16T10:51:39.851Z,1.63
2023-05-16T10:54:36.073Z,1.93
2023-05-16T10:57:25.188Z,1.93
2023-05-16T11:00:23.456Z,1.70
2023-05-16T11:03:25.324Z,2.50
2023-05-16T11:06:14.107Z,1.83
2023-05-16T11:09:06.580Z,1.30
2023-05-16T11:12:00.592Z,1.20
2023-05-16T11:14:52.647Z,2.13
2023-05-16T11:17:43.434Z,1.40
2023-05-16T11:20:36.073Z,1.77
2023-05-16T11:23:26.957Z,6.13
2023-05-16T11:26:15.633Z,2.07
2023-05-16T11:29:04.682Z,1.80
2023-05-16T11:31:54.151Z,1.90
2023-05-16T11:34:43.218Z,2.90
2023-05-16T11:37:33.235Z,1.47
2023-05-16T11:40:22.186Z,1.50
2023-05-16T11:43:10.970Z,1.40
2023-05-16T11:46:00.032Z,1.37
2023-05-16T11:48:48.825Z,1.77
2023-05-16T11:51:39.221Z,1.93
2023-05-16T11:54:29.295Z,3.63
2023-05-16T11:57:17.939Z,1.80
2023-05-16T12:00:11.572Z,1.50
2023-05-16T12:03:04.394Z,1.70
2023-05-16T12:05:54.522Z,2.50
2023-05-16T12:08:51.210Z,2.10
2023-05-16T12:11:42.723Z,1.63
2023-05-16T12:14:31.372Z,2.70
2023-05-16T12:17:22.235Z,5.07
2023-05-16T12:20:14.347Z,3.90
2023-05-16T12:23:02.911Z,1.70
2023-05-16T12:25:52.987Z,2.23
2023-05-16T12:28:44.558Z,2.53
2023-05-16T12:31:37.012Z,1.97
2023-05-16T12:34:29.769Z,2.27
2023-05-16T12:37:18.310Z,1.60
2023-05-16T12:40:09.442Z,1.90
2023-05-16T12:42:58.216Z,2.00
2023-05-16T12:45:53.698Z,1.77
2023-05-16T12:48:44.122Z,2.03
2023-05-16T12:51:35.375Z,2.87
2023-05-16T12:54:24.260Z,2.23
2023-05-16T12:57:12.818Z,2.60
2023-05-16T13:00:01.286Z,3.03
2023-05-16T13:02:52.335Z,3.00
2023-05-16T13:05:41.054Z,4.17
2023-05-16T13:08:29.781Z,2.83
2023-05-16T13:11:19.041Z,4.40
2023-05-16T13:14:07.570Z,2.50
2023-05-16T13:16:56.105Z,3.17
2023-05-16T13:19:48.256Z,3.90
2023-05-16T13:22:37.702Z,3.13
2023-05-16T13:25:26.578Z,3.07
2023-05-16T13:28:15.877Z,3.43
2023-05-16T13:31:04.516Z,3.30
2023-05-16T13:33:53.105Z,3.07
2023-05-16T13:36:53.798Z,3.67
2023-05-16T13:39:42.784Z,4.40
2023-05-16T13:42:31.379Z,3.50
2023-05-16T13:45:19.884Z,4.20
2023-05-16T13:48:08.451Z,3.20
2023-05-16T13:50:57.080Z,5.23
2023-05-16T13:53:46.950Z,5.10
2023-05-16T13:56:35.497Z,6.33
2023-05-16T13:59:41.107Z,5.10
2023-05-16T14:02:32.557Z,4.30
2023-05-16T14:05:21.101Z,5.40
2023-05-16T14:08:09.841Z,5.60
2023-05-16T14:10:59.760Z,6.63
2023-05-16T14:13:49.401Z,6.30
2023-05-16T14:16:38.157Z,3.67
2023-05-16T14:19:26.869Z,5.77
2023-05-16T14:22:15.436Z,7.10
2023-05-16T14:25:04.686Z,4.43
2023-05-16T14:27:54.557Z,3.93
2023-05-16T14:30:43.261Z,6.87
2023-05-16T14:33:32.846Z,5.33
2023-05-16T14:36:21.431Z,6.30
2023-05-16T14:39:10.093Z,3.13
2023-05-16T14:41:58.608Z,10.53
2023-05-16T14:44:48.472Z,8.07
2023-05-16T14:47:37.088Z,6.27
2023-05-16T14:50:25.675Z,4.87
2023-05-16T14:53:14.209Z,3.00
2023-05-16T14:56:03.818Z,5.67
2023-05-16T14:58:52.365Z,5.90
2023-05-16T15:01:42.434Z,6.80
2023-05-16T15:04:31.120Z,4.77
2023-05-16T15:07:20.588Z,4.07
2023-05-16T15:10:10.180Z,3.40
2023-05-16T15:12:59.788Z,3.13
2023-05-16T15:15:48.397Z,8.77
2023-05-16T15:18:38.490Z,3.13
2023-05-16T15:21:27.147Z,9.97
2023-05-16T15:24:16.614Z,4.03
2023-05-16T15:27:05.392Z,3.97
2023-05-16T15:29:53.901Z,3.03
2023-05-16T15:32:45.351Z,2.73
2023-05-16T15:35:35.676Z,4.10
2023-05-16T15:38:27.253Z,5.03
2023-05-16T15:41:32.010Z,3.73
2023-05-16T15:44:24.769Z,4.07
2023-05-16T15:47:13.373Z,6.00
2023-05-16T15:50:02.033Z,2.87
2023-05-16T15:52:52.066Z,6.50
2023-05-16T15:55:40.935Z,2.63
2023-05-16T15:58:29.464Z,3.57
2023-05-16T16:01:20.468Z,5.77
2023-05-16T16:04:14.701Z,4.70
2023-05-16T16:07:03.227Z,3.43
2023-05-16T16:09:53.168Z,4.07
2023-05-16T16:12:41.720Z,3.27
2023-05-16T16:15:33.183Z,3.13
2023-05-16T16:18:22.148Z,3.90
2023-05-16T16:21:10.983Z,3.10
2023-05-16T16:23:59.483Z,2.87
2023-05-16T16:26:49.329Z,4.07
2023-05-16T16:29:37.938Z,6.40
2023-05-16T16:32:26.450Z,5.83
2023-05-16T16:35:15.147Z,3.03
2023-05-16T16:38:07.134Z,2.17
2023-05-16T16:40:55.760Z,2.80
2023-05-16T16:43:45.725Z,4.10
2023-05-16T16:46:34.395Z,3.83
2023-05-16T16:49:22.956Z,3.70
2023-05-16T16:52:11.570Z,3.73
2023-05-16T16:55:00.078Z,6.50
2023-05-16T16:57:48.670Z,3.50
2023-05-16T17:00:38.774Z,3.07
2023-05-16T17:03:27.512Z,5.00
2023-05-16T17:06:16.097Z,3.53
2023-05-16T17:09:06.813Z,3.63
2023-05-16T17:11:55.591Z,2.23
2023-05-16T17:14:44.113Z,2.50
2023-05-16T17:17:34.085Z,2.40
2023-05-16T17:20:22.654Z,3.23
2023-05-16T17:23:11.304Z,5.77
2023-05-16T17:25:59.828Z,1.87
2023-05-16T17:28:49.787Z,2.50
2023-05-16T17:31:38.268Z,3.70
2023-05-16T17:34:28.204Z,12.77
2023-05-16T17:37:17.290Z,4.90
2023-05-16T17:40:09.919Z,4.90
2023-05-16T17:42:58.492Z,3.20
2023-05-16T17:45:47.201Z,2.80
2023-05-16T17:48:35.982Z,3.83
2023-05-16T17:51:26.133Z,3.10
2023-05-16T17:54:15.575Z,3.70
2023-05-16T17:57:06.012Z,10.87
2023-05-16T17:59:54.910Z,2.77
2023-05-16T18:02:43.892Z,1.93
2023-05-16T18:05:32.632Z,3.20
2023-05-16T18:08:23.148Z,2.13
2023-05-16T18:11:11.978Z,2.30
2023-05-16T18:14:00.687Z,2.80
2023-05-16T18:16:49.209Z,4.90
2023-05-16T18:19:37.882Z,3.77
2023-05-16T18:22:27.558Z,4.60
2023-05-16T18:25:17.669Z,6.10
2023-05-16T18:28:06.351Z,2.70
2023-05-16T18:30:54.974Z,3.83
2023-05-16T18:33:43.562Z,4.83
2023-05-16T18:36:32.145Z,2.60
2023-05-16T18:39:21.203Z,5.20
2023-05-16T18:42:11.421Z,2.43
2023-05-16T18:44:59.986Z,3.17
2023-05-16T18:47:48.671Z,5.40
2023-05-16T18:50:37.336Z,4.47
2023-05-16T18:53:25.969Z,7.57
2023-05-16T18:56:14.528Z,3.83
2023-05-16T18:59:04.404Z,2.57
2023-05-16T19:01:52.898Z,3.33
2023-05-16T19:04:41.538Z,2.63
2023-05-16T19:07:30.033Z,2.80
2023-05-16T19:10:18.678Z,2.80
2023-05-16T19:13:08.758Z,4.17
2023-05-16T19:15:58.736Z,4.77
2023-05-16T19:18:47.793Z,4.70
2023-05-16T19:21:36.789Z,5.07
2023-05-16T19:24:25.279Z,2.80
2023-05-16T19:27:13.854Z,6.33
2023-05-16T19:30:02.561Z,2.90
2023-05-16T19:32:52.482Z,2.93
2023-05-16T19:35:41.046Z,3.57
2023-05-16T19:38:29.710Z,2.83
2023-05-16T19:41:18.236Z,3.40
2023-05-16T19:44:07.004Z,1.97
2023-05-16T19:46:55.733Z,3.93
2023-05-16T19:49:45.876Z,4.50
2023-05-16T19:52:34.717Z,2.47
2023-05-16T19:55:23.548Z,4.67
2023-05-16T19:58:12.116Z,3.97
2023-05-16T20:01:00.681Z,3.23
2023-05-16T20:03:49.345Z,5.00
2023-05-16T20:06:39.265Z,3.03
2023-05-16T20:09:28.567Z,3.33
2023-05-16T20:12:17.171Z,2.87
2023-05-16T20:15:08.782Z,4.13
2023-05-16T20:17:57.702Z,3.30
2023-05-16T20:20:46.234Z,4.40
2023-05-16T20:23:38.112Z,3.43
2023-05-16T20:26:27.217Z,2.27
2023-05-16T20:29:15.878Z,3.17
2023-05-16T20:32:04.893Z,5.37
2023-05-16T20:34:53.401Z,6.77
2023-05-16T20:37:42.310Z,6.60
2023-05-16T20:40:32.153Z,6.83
2023-05-16T20:43:20.676Z,4.40
2023-05-16T20:46:09.371Z,2.67
2023-05-16T20:48:57.969Z,2.43
2023-05-16T20:51:46.580Z,4.40
2023-05-16T20:54:35.341Z,2.30
2023-05-16T20:57:25.388Z,4.90
2023-05-16T21:00:14.811Z,3.40
2023-05-16T21:03:03.379Z,2.60
2023-05-16T21:05:52.397Z,6.47
2023-05-16T21:08:40.894Z,2.67
2023-05-16T21:11:32.060Z,4.47
2023-05-16T21:14:22.191Z,2.93
2023-05-16T21:17:10.793Z,5.67
2023-05-16T21:19:59.424Z,2.50
2023-05-16T21:22:48.035Z,2.23
2023-05-16T21:25:36.853Z,3.00
2023-05-16T21:28:25.408Z,4.33
2023-05-16T21:31:15.238Z,6.53
2023-05-16T21:34:03.868Z,4.57
2023-05-16T21:36:53.784Z,3.60
2023-05-16T21:39:42.329Z,2.00
2023-05-16T21:42:31.116Z,4.27
2023-05-16T21:45:19.849Z,3.17
2023-05-16T21:48:09.835Z,3.90
2023-05-16T21:50:58.475Z,6.23
2023-05-16T21:53:47.107Z,2.53
2023-05-16T21:56:36.939Z,4.33
2023-05-16T21:59:25.603Z,5.57
2023-05-16T22:02:14.107Z,2.97
2023-05-16T22:05:04.927Z,3.37
2023-05-16T22:07:53.759Z,4.30
2023-05-16T22:10:42.381Z,3.13
2023-05-16T22:13:31.009Z,4.07
2023-05-16T22:16:19.769Z,3.10
2023-05-16T22:19:08.982Z,5.43
2023-05-16T22:21:59.225Z,2.50
2023-05-16T22:24:48.005Z,5.60
2023-05-16T22:27:36.722Z,5.17
2023-05-16T22:30:25.314Z,3.57
2023-05-16T22:33:13.959Z,3.13
2023-05-16T22:36:03.167Z,2.90
2023-05-16T22:38:56.065Z,5.20
2023-05-16T22:41:44.613Z,2.83
2023-05-16T22:44:33.181Z,5.13
2023-05-16T22:47:21.703Z,3.10
2023-05-16T22:50:11.131Z,3.43
2023-05-16T22:52:59.674Z,5.97
2023-05-16T22:55:49.547Z,2.60
2023-05-16T22:58:38.069Z,5.63
2023-05-16T23:01:26.907Z,4.53
2023-05-16T23:04:16.125Z,4.57
2023-05-16T23:07:04.722Z,4.43
2023-05-16T23:09:53.232Z,5.70
2023-05-16T23:12:43.122Z,4.40
2023-05-16T23:15:31.736Z,6.13
2023-05-16T23:18:20.361Z,5.90
2023-05-16T23:21:09.491Z,3.50
2023-05-16T23:23:58.098Z,2.80
2023-05-16T23:26:46.540Z,3.00
2023-05-16T23:29:36.419Z,6.90
2023-05-16T23:32:25.000Z,3.80
2023-05-16T23:35:13.531Z,3.73
2023-05-16T23:38:02.100Z,4.10
2023-05-16T23:40:50.595Z,5.70
2023-05-16T23:43:39.143Z,6.27
2023-05-16T23:46:29.031Z,3.83
2023-05-16T23:49:17.535Z,6.30
2023-05-16T23:52:06.731Z,5.70
2023-05-16T23:54:55.275Z,4.93
2023-05-16T23:57:43.808Z,2.67
